createdAt,value
2023-03-22T00:02:13.893Z,3.47
2023-03-22T00:04:42.463Z,2.97
2023-03-22T00:07:09.232Z,3.07
2023-03-22T00:09:36.632Z,3.40
2023-03-22T00:12:04.264Z,3.40
2023-03-22T00:14:30.968Z,3.53
2023-03-22T00:16:57.672Z,4.57
2023-03-22T00:19:24.521Z,3.40
2023-03-22T00:21:51.462Z,3.80
2023-03-22T00:24:18.180Z,3.80
2023-03-22T00:26:47.170Z,3.73
2023-03-22T00:29:14.099Z,3.47
2023-03-22T00:31:41.235Z,3.47
2023-03-22T00:34:08.226Z,3.63
2023-03-22T00:36:37.872Z,3.93
2023-03-22T00:39:04.720Z,3.20
2023-03-22T00:41:31.544Z,3.80
2023-03-22T00:43:58.229Z,3.60
2023-03-22T00:46:25.138Z,3.47
2023-03-22T00:48:51.933Z,3.50
2023-03-22T00:51:18.670Z,3.30
2023-03-22T00:53:45.652Z,3.87
2023-03-22T00:56:14.183Z,3.60
2023-03-22T00:58:42.184Z,3.80
2023-03-22T01:01:09.263Z,3.63
2023-03-22T01:03:36.008Z,3.97
2023-03-22T01:06:02.881Z,3.80
2023-03-22T01:08:32.899Z,3.73
2023-03-22T01:11:01.108Z,4.40
2023-03-22T01:13:28.029Z,3.77
2023-03-22T01:15:54.802Z,3.83
2023-03-22T01:18:21.467Z,3.77
2023-03-22T01:20:48.164Z,5.00
2023-03-22T01:23:14.930Z,4.30
2023-03-22T01:25:41.563Z,3.90
2023-03-22T01:28:08.721Z,3.60
2023-03-22T01:30:35.549Z,4.20
2023-03-22T01:33:02.240Z,4.17
2023-03-22T01:35:29.074Z,4.30
2023-03-22T01:37:56.213Z,3.90
2023-03-22T01:40:22.881Z,3.70
2023-03-22T01:42:49.566Z,4.00
2023-03-22T01:45:26.604Z,3.63
2023-03-22T01:48:01.136Z,3.60
2023-03-22T01:50:29.353Z,3.63
2023-03-22T01:52:57.281Z,3.93
2023-03-22T01:55:26.092Z,4.10
2023-03-22T01:57:54.018Z,3.40
2023-03-22T02:00:21.167Z,3.93
2023-03-22T02:02:50.913Z,3.90
2023-03-22T02:05:19.065Z,3.20
2023-03-22T02:07:46.217Z,3.50
2023-03-22T02:10:19.335Z,3.90
2023-03-22T02:13:07.578Z,3.37
2023-03-22T02:15:51.037Z,3.43
2023-03-22T02:18:49.941Z,3.70
2023-03-22T02:21:16.514Z,3.40
2023-03-22T02:24:09.079Z,4.00
2023-03-22T02:26:54.463Z,4.20
2023-03-22T02:30:07.038Z,4.10
2023-03-22T02:33:07.667Z,3.90
2023-03-22T02:35:46.088Z,4.23
2023-03-22T02:38:15.847Z,3.57
2023-03-22T02:41:00.528Z,4.17
2023-03-22T02:43:41.507Z,3.70
2023-03-22T02:46:15.313Z,3.67
2023-03-22T02:48:56.313Z,4.63
2023-03-22T02:51:37.257Z,3.80
2023-03-22T02:54:13.973Z,4.43
2023-03-22T02:56:47.034Z,3.70
2023-03-22T02:59:15.562Z,4.43
2023-03-22T03:01:52.998Z,4.10
2023-03-22T03:04:23.598Z,3.97
2023-03-22T03:06:52.127Z,4.47
2023-03-22T03:09:20.481Z,4.37
2023-03-22T03:11:50.560Z,4.23
2023-03-22T03:14:24.760Z,4.13
2023-03-22T03:17:17.109Z,5.30
2023-03-22T03:20:08.845Z,4.33
2023-03-22T03:22:48.435Z,4.83
2023-03-22T03:25:33.059Z,3.77
2023-03-22T03:28:05.177Z,4.00
2023-03-22T03:30:39.076Z,3.67
2023-03-22T03:33:09.502Z,4.23
2023-03-22T03:35:46.543Z,3.73
2023-03-22T03:38:18.599Z,3.77
2023-03-22T03:40:50.277Z,3.30
2023-03-22T03:43:17.848Z,3.70
2023-03-22T03:45:44.782Z,4.13
2023-03-22T03:48:18.217Z,3.80
2023-03-22T03:50:46.370Z,4.10
2023-03-22T03:53:13.136Z,4.20
2023-03-22T03:55:39.885Z,4.23
2023-03-22T03:58:06.645Z,3.57
2023-03-22T04:00:33.252Z,4.30
2023-03-22T04:02:59.911Z,3.77
2023-03-22T04:05:26.664Z,3.47
2023-03-22T04:07:53.348Z,3.87
2023-03-22T04:10:20.168Z,3.93
2023-03-22T04:12:46.819Z,3.40
2023-03-22T04:15:13.774Z,3.60
2023-03-22T04:17:42.098Z,3.83
2023-03-22T04:20:10.995Z,3.40
2023-03-22T04:22:38.916Z,3.13
2023-03-22T04:25:11.641Z,3.60
2023-03-22T04:27:42.413Z,3.30
2023-03-22T04:30:12.298Z,3.93
2023-03-22T04:32:39.597Z,3.93
2023-03-22T04:35:06.399Z,3.63
2023-03-22T04:37:33.747Z,3.30
2023-03-22T04:40:00.527Z,4.17
2023-03-22T04:42:27.203Z,4.60
2023-03-22T04:44:53.832Z,4.23
2023-03-22T04:47:20.584Z,4.40
2023-03-22T04:49:47.247Z,3.70
2023-03-22T04:52:13.934Z,3.80
2023-03-22T04:54:40.845Z,3.70
2023-03-22T04:57:07.553Z,4.80
2023-03-22T04:59:34.328Z,4.10
2023-03-22T05:02:01.498Z,3.60
2023-03-22T05:04:28.549Z,4.33
2023-03-22T05:06:55.195Z,3.20
2023-03-22T05:09:23.536Z,3.97
2023-03-22T05:11:50.441Z,4.30
2023-03-22T05:14:17.186Z,3.50
2023-03-22T05:16:43.891Z,3.90
2023-03-22T05:19:16.839Z,4.70
2023-03-22T05:21:44.126Z,4.50
2023-03-22T05:24:11.612Z,4.80
2023-03-22T05:26:42.157Z,5.00
2023-03-22T05:29:10.900Z,4.03
2023-03-22T05:31:37.814Z,4.23
2023-03-22T05:34:05.017Z,3.57
2023-03-22T05:36:31.934Z,3.53
2023-03-22T05:38:58.669Z,4.00
2023-03-22T05:41:25.422Z,3.63
2023-03-22T05:43:52.120Z,3.30
2023-03-22T05:46:19.007Z,4.23
2023-03-22T05:48:45.831Z,4.53
2023-03-22T05:51:17.420Z,3.90
2023-03-22T05:53:45.646Z,3.93
2023-03-22T05:56:12.954Z,3.77
2023-03-22T05:58:41.133Z,3.53
2023-03-22T06:01:11.543Z,3.27
2023-03-22T06:03:39.172Z,3.50
2023-03-22T06:06:10.485Z,3.53
2023-03-22T06:08:38.543Z,3.50
2023-03-22T06:11:05.794Z,3.37
2023-03-22T06:13:32.894Z,3.20
2023-03-22T06:16:02.003Z,3.13
2023-03-22T06:18:29.524Z,4.67
2023-03-22T06:20:56.529Z,4.47
2023-03-22T06:23:23.230Z,3.67
2023-03-22T06:25:50.029Z,3.50
2023-03-22T06:28:16.873Z,3.87
2023-03-22T06:30:43.675Z,3.40
2023-03-22T06:33:10.412Z,3.47
2023-03-22T06:35:37.091Z,2.97
2023-03-22T06:38:03.753Z,3.43
2023-03-22T06:40:30.572Z,3.70
2023-03-22T06:42:57.245Z,3.00
2023-03-22T06:45:23.948Z,3.30
2023-03-22T06:47:50.783Z,2.53
2023-03-22T06:50:17.741Z,2.60
2023-03-22T06:52:44.422Z,2.80
2023-03-22T06:55:11.128Z,2.73
2023-03-22T06:57:37.806Z,2.60
2023-03-22T07:00:05.395Z,2.70
2023-03-22T07:02:32.179Z,2.83
2023-03-22T07:04:58.837Z,2.70
2023-03-22T07:07:25.689Z,2.70
2023-03-22T07:09:53.311Z,3.13
2023-03-22T07:12:20.264Z,2.40
2023-03-22T07:14:47.041Z,3.70
2023-03-22T07:17:14.149Z,3.30
2023-03-22T07:19:42.660Z,3.80
2023-03-22T07:22:09.664Z,3.40
2023-03-22T07:24:44.658Z,3.37
2023-03-22T07:27:17.845Z,3.03
2023-03-22T07:29:44.715Z,2.83
2023-03-22T07:32:11.632Z,3.40
2023-03-22T07:34:38.327Z,3.10
2023-03-22T07:37:05.139Z,3.17
2023-03-22T07:39:31.900Z,2.90
2023-03-22T07:41:58.596Z,3.00
2023-03-22T07:44:25.413Z,3.07
2023-03-22T07:46:52.568Z,3.17
2023-03-22T07:49:19.207Z,2.90
2023-03-22T07:51:46.133Z,2.93
2023-03-22T07:54:20.149Z,2.60
2023-03-22T07:56:53.877Z,2.43
2023-03-22T07:59:20.813Z,2.70
2023-03-22T08:01:47.491Z,2.47
2023-03-22T08:04:14.240Z,2.70
2023-03-22T08:06:42.624Z,2.33
2023-03-22T08:09:09.383Z,2.10
2023-03-22T08:11:36.613Z,2.10
2023-03-22T08:14:03.585Z,2.30
2023-03-22T08:16:30.458Z,2.50
2023-03-22T08:18:57.242Z,2.27
2023-03-22T08:21:24.118Z,2.30
2023-03-22T08:23:51.130Z,2.37
2023-03-22T08:26:18.647Z,2.10
2023-03-22T08:28:45.430Z,2.10
2023-03-22T08:31:17.056Z,1.83
2023-03-22T08:33:44.375Z,2.27
2023-03-22T08:36:13.977Z,1.83
2023-03-22T08:38:42.472Z,2.20
2023-03-22T08:41:09.462Z,2.20
2023-03-22T08:43:36.201Z,2.00
2023-03-22T08:46:03.251Z,1.50
2023-03-22T08:48:30.827Z,1.63
2023-03-22T08:50:58.428Z,1.37
2023-03-22T08:53:25.232Z,1.80
2023-03-22T08:55:51.942Z,1.87
2023-03-22T08:58:19.991Z,1.73
2023-03-22T09:00:49.297Z,1.50
2023-03-22T09:03:16.850Z,1.57
2023-03-22T09:05:43.639Z,1.40
2023-03-22T09:08:18.559Z,1.20
2023-03-22T09:10:51.171Z,1.33
2023-03-22T09:13:18.555Z,1.30
2023-03-22T09:15:45.746Z,1.60
2023-03-22T09:18:13.257Z,1.60
2023-03-22T09:20:40.324Z,0.70
2023-03-22T09:23:07.297Z,0.73
2023-03-22T09:25:34.560Z,0.70
2023-03-22T09:28:04.157Z,0.57
2023-03-22T09:30:31.274Z,0.60
2023-03-22T09:32:58.020Z,0.50
2023-03-22T09:35:24.719Z,0.57
2023-03-22T09:37:53.454Z,0.57
2023-03-22T09:40:21.755Z,0.50
2023-03-22T09:42:52.398Z,0.40
2023-03-22T09:45:25.235Z,0.53
2023-03-22T09:47:55.818Z,0.50
2023-03-22T09:50:26.388Z,0.50
2023-03-22T09:52:53.726Z,0.60
2023-03-22T09:55:25.825Z,0.60
2023-03-22T09:58:06.913Z,0.90
2023-03-22T10:00:48.462Z,0.77
2023-03-22T10:03:24.545Z,0.50
2023-03-22T10:06:10.930Z,0.47
2023-03-22T10:08:41.569Z,0.50
2023-03-22T10:11:20.121Z,0.60
2023-03-22T10:14:17.115Z,0.43
2023-03-22T10:16:44.864Z,0.60
2023-03-22T10:19:27.043Z,0.40
2023-03-22T10:21:56.555Z,0.70
2023-03-22T10:24:33.024Z,0.40
2023-03-22T10:27:00.181Z,0.50
2023-03-22T10:29:36.005Z,0.43
2023-03-22T10:32:16.496Z,0.50
2023-03-22T10:34:43.997Z,0.40
2023-03-22T10:37:22.152Z,0.53
2023-03-22T10:39:53.057Z,0.50
2023-03-22T10:42:23.599Z,0.43
2023-03-22T10:45:01.274Z,0.47
2023-03-22T10:47:35.218Z,0.47
2023-03-22T10:50:07.178Z,0.50
2023-03-22T10:52:41.446Z,0.57
2023-03-22T10:55:13.598Z,0.50
2023-03-22T10:57:43.100Z,0.40
2023-03-22T11:00:14.998Z,0.50
2023-03-22T11:02:50.948Z,0.30
2023-03-22T11:05:29.011Z,0.50
2023-03-22T11:08:00.158Z,0.33
2023-03-22T11:10:32.892Z,0.50
2023-03-22T11:13:09.045Z,0.40
2023-03-22T11:15:40.319Z,0.40
2023-03-22T11:18:12.821Z,0.40
2023-03-22T11:20:42.378Z,0.40
2023-03-22T11:23:17.699Z,0.33
2023-03-22T11:25:48.191Z,0.30
2023-03-22T11:28:26.741Z,0.40
2023-03-22T11:31:09.349Z,0.40
2023-03-22T11:33:37.105Z,0.40
2023-03-22T11:36:18.843Z,0.37
2023-03-22T11:38:47.333Z,0.33
2023-03-22T11:41:23.359Z,0.20
2023-03-22T11:44:01.283Z,0.40
2023-03-22T11:46:29.459Z,0.40
2023-03-22T11:49:02.480Z,0.30
2023-03-22T11:51:35.985Z,0.30
2023-03-22T11:54:15.880Z,0.90
2023-03-22T11:56:47.136Z,0.40
2023-03-22T11:59:22.747Z,0.40
2023-03-22T12:01:56.836Z,0.50
2023-03-22T12:04:27.761Z,0.40
2023-03-22T12:06:59.088Z,0.40
2023-03-22T12:09:35.782Z,0.40
2023-03-22T12:12:04.929Z,0.40
2023-03-22T12:14:51.861Z,0.70
2023-03-22T12:17:47.596Z,0.50
2023-03-22T12:20:48.225Z,0.20
2023-03-22T12:23:18.043Z,0.60
2023-03-22T12:26:00.372Z,0.50
2023-03-22T12:28:53.478Z,0.30
2023-03-22T12:31:31.965Z,0.43
2023-03-22T12:34:08.320Z,0.30
2023-03-22T12:36:43.122Z,0.30
2023-03-22T12:39:22.596Z,0.47
2023-03-22T12:41:52.709Z,0.40
2023-03-22T12:44:40.323Z,0.80
2023-03-22T12:47:24.531Z,0.30
2023-03-22T12:50:05.907Z,0.40
2023-03-22T12:52:46.656Z,0.50
2023-03-22T12:55:34.656Z,0.37
2023-03-22T12:58:02.213Z,0.30
2023-03-22T13:00:33.257Z,0.40
2023-03-22T13:03:08.623Z,0.30
2023-03-22T13:05:37.343Z,0.40
2023-03-22T13:08:05.626Z,0.47
2023-03-22T13:10:41.877Z,0.40
2023-03-22T13:13:08.714Z,0.60
2023-03-22T13:15:42.164Z,0.50
2023-03-22T13:18:47.669Z,0.37
2023-03-22T13:21:21.593Z,0.43
2023-03-22T13:24:07.514Z,0.40
2023-03-22T13:26:42.137Z,0.20
2023-03-22T13:29:17.436Z,0.57
2023-03-22T13:31:51.381Z,0.30
2023-03-22T13:34:31.759Z,0.40
2023-03-22T13:37:01.479Z,0.30
2023-03-22T13:39:34.610Z,0.50
2023-03-22T13:42:21.054Z,0.30
2023-03-22T13:45:03.975Z,0.40
2023-03-22T13:47:44.693Z,0.30
2023-03-22T13:50:28.179Z,0.30
2023-03-22T13:53:01.899Z,0.30
2023-03-22T13:55:46.793Z,0.73
2023-03-22T13:58:53.005Z,0.50
2023-03-22T14:01:30.457Z,0.30
2023-03-22T14:04:01.262Z,0.83
2023-03-22T14:06:33.626Z,0.60
2023-03-22T14:09:27.034Z,0.40
2023-03-22T14:12:07.162Z,0.30
2023-03-22T14:14:44.248Z,0.40
2023-03-22T14:17:33.317Z,0.50
2023-03-22T14:20:01.458Z,0.30
